Oscoda, Michigan
Current Conditions -  °F | °C
As of 3:13 PM on Sunday 21 Dec 2014 (Local Time) from KOSC Reporting Station
Overcast Overcast  
Wind Chill: 26°   Ceiling: 2400
Heat Index: 32°   Visibility: 7mi
Dew Point: 28°   Wind: 6mph
Humidity: 84%   Direction: 190°S
Pressure: 30.2"   Gusts: NA
Location:  44.42°N, 83.33°W
Report Text: KOSC 212013Z AUTO 19005KT 7SM OVC024 00/M02 A3020 RMK AO2 T10011025
Loading
Personal Weather Stations






























Interactive Weather Map New forecast layout! Learn more

10-Day Weather Forecast

Advertisements
Track Severe Weather on mobile